Αρχική σελίδα
METAR-TAF:

METAR-TAF

Αεροδρόμια :

Ουέλλινγκτον, Νέα Ζηλανδία

γεωγραφικό πλάτος: 41-20S, γεωγραφικό μήκος: 174-48E, υψόμετρο: 12 μ

Παρών καιρός

Η αναφορά έγινε 27 λεπτά πριν, στις 11:00 UTC
Άνεμος 5 kt από Β/BA
Θερμοκρασία 3°C
Υγρασία 87%
Πίεση 1019 hPa
Ορατότητα 10 χλμ και άνω

METAR: NZWN 221100Z AUTO 02005KT 9999 NCD 03/01 Q1019 NOSIG

Χρόνος: 23:27 (11:27 UTC)

Πρόγνωση Καιρού

Η αναφορά έγινε 6 ώρες και 21 λεπτά πριν, στις 05:06 UTC
Η πρόγνωση ισχύει από τις 22 στις 06 UTC έως τις 23 στις 06 UTC
Άνεμος 5 kt από Β
Ορατότητα 10 χλμ και άνω
Λίγα νέφη σε ύψος 3000 πόδια
Προσωρινά
από 22 στις 11 UTC έως τις 22 στις 16 UTC
Ορατότητα: 8000 μ
Όμβροι
Καθιστάμενος
από 23 στις 02 UTC έως τις 23 στις 04 UTC
Άνεμος 15 kt από Β/BΔ

TAF: NZWN 220506Z 2206/2306 36005KT 9999 FEW030 TEMPO 2211/2216 8000 SHRA BECMG 2302/2304 34015KT

Μετεωρολογικές αναφορές και προγνώσεις για περισσότερα από 4000 αεροδρόμια (δελτία METAR και TAF).

Οι διαθέσιμοι σταθμοί απεικονίζονται στο χάρτη με κίτρινες και κόκκινες κουκκίδες.

Μετακινήστε το ποντίκι πάνω από τις κουκκίδες για να δείτε το όνομα του σταθμού.

Στη συνέχεια, κάντε κλικ για να δείτε τις μετεωρολογικές αναφορές και τις προγνώσεις καιρού.

Για να αλλάξετε το χάρτη: κάντε κλικ στα πράσινα κουμπιά με τον μαύρο σταυρό για να ζουμάρετε, στο πράσινο κουμπί με την παύλα για να αφαιρέσετε το ζουμ ή στα πράσινα βέλη για να αντιπαραβάλλετε χάρτες.


METAR-TAF: